sensor_id;sensor_type;location;lat;lon;timestamp;noise_LAeq;noise_LA_min;noise_LA_max;noise_LA01;noise_LA95
70740;Laerm;58330;51.888;11.052;2023-04-24T00:00:43;33.13;31.87;34.30;;
70740;Laerm;58330;51.888;11.052;2023-04-24T00:03:11;33.16;31.70;34.46;;
70740;Laerm;58330;51.888;11.052;2023-04-24T00:05:38;33.18;31.79;34.38;;
70740;Laerm;58330;51.888;11.052;2023-04-24T00:08:05;33.23;31.89;34.47;;
70740;Laerm;58330;51.888;11.052;2023-04-24T00:10:31;33.25;31.72;34.72;;
70740;Laerm;58330;51.888;11.052;2023-04-24T00:12:58;33.31;31.90;34.64;;
70740;Laerm;58330;51.888;11.052;2023-04-24T00:15:24;33.34;31.95;39.19;;
70740;Laerm;58330;51.888;11.052;2023-04-24T00:17:51;33.35;32.01;39.56;;
70740;Laerm;58330;51.888;11.052;2023-04-24T00:20:19;33.36;31.99;34.68;;
70740;Laerm;58330;51.888;11.052;2023-04-24T00:22:46;33.38;31.84;34.69;;
70740;Laerm;58330;51.888;11.052;2023-04-24T00:25:12;33.37;31.97;34.74;;
70740;Laerm;58330;51.888;11.052;2023-04-24T00:27:39;33.37;31.77;34.53;;
70740;Laerm;58330;51.888;11.052;2023-04-24T00:30:06;33.36;32.03;34.63;;
70740;Laerm;58330;51.888;11.052;2023-04-24T00:32:32;33.37;31.95;34.78;;
70740;Laerm;58330;51.888;11.052;2023-04-24T00:34:59;33.36;32.09;35.86;;
70740;Laerm;58330;51.888;11.052;2023-04-24T00:37:27;33.36;31.78;34.63;;
70740;Laerm;58330;51.888;11.052;2023-04-24T00:39:53;33.37;32.04;34.70;;
70740;Laerm;58330;51.888;11.052;2023-04-24T00:42:20;33.37;32.21;36.51;;
70740;Laerm;58330;51.888;11.052;2023-04-24T00:44:46;33.41;31.97;37.48;;
70740;Laerm;58330;51.888;11.052;2023-04-24T00:47:13;33.43;32.07;38.01;;
70740;Laerm;58330;51.888;11.052;2023-04-24T00:49:40;33.41;32.03;39.18;;
70740;Laerm;58330;51.888;11.052;2023-04-24T00:52:06;33.42;31.94;37.81;;
70740;Laerm;58330;51.888;11.052;2023-04-24T00:54:35;33.42;31.84;37.60;;
70740;Laerm;58330;51.888;11.052;2023-04-24T00:57:02;33.44;32.14;39.52;;
70740;Laerm;58330;51.888;11.052;2023-04-24T00:59:28;33.49;31.99;40.53;;
70740;Laerm;58330;51.888;11.052;2023-04-24T01:01:55;33.49;31.80;39.98;;
70740;Laerm;58330;51.888;11.052;2023-04-24T01:04:21;33.53;32.20;44.46;;
70740;Laerm;58330;51.888;11.052;2023-04-24T01:06:48;33.59;32.30;39.31;;
70740;Laerm;58330;51.888;11.052;2023-04-24T01:09:16;33.59;31.92;39.15;;
70740;Laerm;58330;51.888;11.052;2023-04-24T01:11:44;33.54;32.19;39.86;;
70740;Laerm;58330;51.888;11.052;2023-04-24T01:14:11;33.51;32.30;34.69;;
70740;Laerm;58330;51.888;11.052;2023-04-24T01:16:37;33.54;32.18;34.87;;
70740;Laerm;58330;51.888;11.052;2023-04-24T01:19:04;33.53;32.16;34.83;;
70740;Laerm;58330;51.888;11.052;2023-04-24T01:21:31;33.52;32.26;38.96;;
70740;Laerm;58330;51.888;11.052;2023-04-24T01:24:02;33.52;32.08;34.76;;
70740;Laerm;58330;51.888;11.052;2023-04-24T01:26:28;33.54;32.26;39.80;;
70740;Laerm;58330;51.888;11.052;2023-04-24T01:28:55;33.55;32.22;40.32;;
70740;Laerm;58330;51.888;11.052;2023-04-24T01:31:21;33.56;32.14;41.42;;
70740;Laerm;58330;51.888;11.052;2023-04-24T01:33:48;33.60;32.19;42.19;;
70740;Laerm;58330;51.888;11.052;2023-04-24T01:36:15;33.58;32.31;40.90;;
70740;Laerm;58330;51.888;11.052;2023-04-24T01:38:42;33.60;32.27;41.18;;
70740;Laerm;58330;51.888;11.052;2023-04-24T01:41:10;33.60;32.47;41.03;;
70740;Laerm;58330;51.888;11.052;2023-04-24T01:43:36;33.62;32.39;41.14;;
70740;Laerm;58330;51.888;11.052;2023-04-24T01:46:03;33.56;32.41;39.02;;
70740;Laerm;58330;51.888;11.052;2023-04-24T01:48:29;33.56;32.13;41.02;;
70740;Laerm;58330;51.888;11.052;2023-04-24T01:50:56;33.59;32.19;41.93;;
70740;Laerm;58330;51.888;11.052;2023-04-24T01:53:22;33.63;32.03;41.41;;
70740;Laerm;58330;51.888;11.052;2023-04-24T01:55:49;33.58;32.29;37.35;;
70740;Laerm;58330;51.888;11.052;2023-04-24T01:58:16;33.56;32.29;35.46;;
70740;Laerm;58330;51.888;11.052;2023-04-24T02:00:43;33.54;32.37;34.85;;
70740;Laerm;58330;51.888;11.052;2023-04-24T02:03:09;33.54;32.28;34.80;;
70740;Laerm;58330;51.888;11.052;2023-04-24T02:05:35;33.70;32.26;35.14;;
70740;Laerm;58330;51.888;11.052;2023-04-24T02:08:02;33.94;32.44;35.53;;
70740;Laerm;58330;51.888;11.052;2023-04-24T02:10:28;34.12;32.62;35.45;;
70740;Laerm;58330;51.888;11.052;2023-04-24T02:12:55;34.13;32.61;35.50;;
70740;Laerm;58330;51.888;11.052;2023-04-24T02:15:22;34.14;32.74;35.39;;
70740;Laerm;58330;51.888;11.052;2023-04-24T02:17:49;34.07;32.61;35.46;;
70740;Laerm;58330;51.888;11.052;2023-04-24T02:20:15;34.13;32.71;35.53;;
70740;Laerm;58330;51.888;11.052;2023-04-24T02:22:42;34.18;32.68;35.54;;
70740;Laerm;58330;51.888;11.052;2023-04-24T02:25:09;34.18;32.80;35.55;;
70740;Laerm;58330;51.888;11.052;2023-04-24T02:27:35;34.20;32.92;35.58;;
70740;Laerm;58330;51.888;11.052;2023-04-24T02:30:01;34.16;32.66;35.53;;
70740;Laerm;58330;51.888;11.052;2023-04-24T02:32:29;34.05;32.52;35.32;;
70740;Laerm;58330;51.888;11.052;2023-04-24T02:34:56;34.15;32.73;35.70;;
70740;Laerm;58330;51.888;11.052;2023-04-24T02:37:22;34.17;32.46;35.42;;
70740;Laerm;58330;51.888;11.052;2023-04-24T02:39:48;34.17;32.81;35.55;;
70740;Laerm;58330;51.888;11.052;2023-04-24T02:42:15;34.19;32.71;35.54;;
70740;Laerm;58330;51.888;11.052;2023-04-24T02:44:41;34.24;32.63;35.71;;
70740;Laerm;58330;51.888;11.052;2023-04-24T02:47:07;34.30;32.55;35.85;;
70740;Laerm;58330;51.888;11.052;2023-04-24T02:49:35;34.26;32.77;35.70;;
70740;Laerm;58330;51.888;11.052;2023-04-24T02:52:01;34.25;32.30;35.59;;
70740;Laerm;58330;51.888;11.052;2023-04-24T02:54:28;34.24;32.82;35.59;;
70740;Laerm;58330;51.888;11.052;2023-04-24T02:56:54;34.17;32.63;35.61;;
70740;Laerm;58330;51.888;11.052;2023-04-24T02:59:21;34.22;32.81;35.81;;
70740;Laerm;58330;51.888;11.052;2023-04-24T03:01:48;34.23;32.69;35.55;;
70740;Laerm;58330;51.888;11.052;2023-04-24T03:04:14;34.20;32.58;35.86;;
70740;Laerm;58330;51.888;11.052;2023-04-24T03:06:42;34.22;32.41;35.94;;
70740;Laerm;58330;51.888;11.052;2023-04-24T03:09:08;34.19;32.74;35.57;;
70740;Laerm;58330;51.888;11.052;2023-04-24T03:11:34;34.09;32.62;35.47;;
70740;Laerm;58330;51.888;11.052;2023-04-24T03:14:00;34.20;32.91;36.17;;
70740;Laerm;58330;51.888;11.052;2023-04-24T03:16:27;34.17;32.67;35.51;;
70740;Laerm;58330;51.888;11.052;2023-04-24T03:18:53;34.11;32.59;35.47;;
70740;Laerm;58330;51.888;11.052;2023-04-24T03:21:20;34.11;32.53;35.43;;
70740;Laerm;58330;51.888;11.052;2023-04-24T03:23:47;34.08;32.61;35.66;;
70740;Laerm;58330;51.888;11.052;2023-04-24T03:26:14;34.12;32.57;36.16;;
70740;Laerm;58330;51.888;11.052;2023-04-24T03:28:40;34.14;32.67;35.60;;
70740;Laerm;58330;51.888;11.052;2023-04-24T03:31:06;34.09;32.45;35.50;;
70740;Laerm;58330;51.888;11.052;2023-04-24T03:33:33;34.07;32.50;35.53;;
70740;Laerm;58330;51.888;11.052;2023-04-24T03:35:59;34.07;32.60;35.63;;
70740;Laerm;58330;51.888;11.052;2023-04-24T03:38:25;34.03;32.48;35.57;;
70740;Laerm;58330;51.888;11.052;2023-04-24T03:40:53;34.06;32.60;35.66;;
70740;Laerm;58330;51.888;11.052;2023-04-24T03:43:19;34.03;32.63;35.45;;
70740;Laerm;58330;51.888;11.052;2023-04-24T03:45:46;33.99;32.36;35.82;;
70740;Laerm;58330;51.888;11.052;2023-04-24T03:48:12;34.08;32.60;35.78;;
70740;Laerm;58330;51.888;11.052;2023-04-24T03:50:38;33.99;32.58;35.37;;
70740;Laerm;58330;51.888;11.052;2023-04-24T03:53:05;34.06;32.45;35.81;;
70740;Laerm;58330;51.888;11.052;2023-04-24T03:55:31;34.05;32.67;35.59;;
70740;Laerm;58330;51.888;11.052;2023-04-24T03:57:59;34.00;32.48;35.55;;
70740;Laerm;58330;51.888;11.052;2023-04-24T04:00:25;34.04;32.53;39.93;;
70740;Laerm;58330;51.888;11.052;2023-04-24T04:02:52;33.97;32.58;35.37;;
70740;Laerm;58330;51.888;11.052;2023-04-24T04:05:19;34.02;32.58;35.52;;
70740;Laerm;58330;51.888;11.052;2023-04-24T04:07:45;33.99;32.44;35.40;;
70740;Laerm;58330;51.888;11.052;2023-04-24T04:10:11;34.01;32.65;35.41;;
70740;Laerm;58330;51.888;11.052;2023-04-24T04:12:38;34.04;32.48;35.97;;
70740;Laerm;58330;51.888;11.052;2023-04-24T04:15:06;33.93;32.58;35.53;;
70740;Laerm;58330;51.888;11.052;2023-04-24T04:17:32;33.89;32.06;35.34;;
70740;Laerm;58330;51.888;11.052;2023-04-24T04:19:59;33.82;32.22;35.65;;
70740;Laerm;58330;51.888;11.052;2023-04-24T04:22:26;33.83;32.49;35.29;;
70740;Laerm;58330;51.888;11.052;2023-04-24T04:24:52;33.85;32.54;35.33;;
70740;Laerm;58330;51.888;11.052;2023-04-24T04:27:18;33.79;32.27;35.15;;
70740;Laerm;58330;51.888;11.052;2023-04-24T04:29:46;33.84;32.37;35.32;;
70740;Laerm;58330;51.888;11.052;2023-04-24T04:32:14;33.79;32.37;35.19;;
70740;Laerm;58330;51.888;11.052;2023-04-24T04:34:41;33.86;32.55;35.36;;
70740;Laerm;58330;51.888;11.052;2023-04-24T04:37:07;33.91;32.42;35.48;;
70740;Laerm;58330;51.888;11.052;2023-04-24T04:39:35;33.91;32.34;35.62;;
70740;Laerm;58330;51.888;11.052;2023-04-24T04:42:02;33.87;32.11;35.56;;
70740;Laerm;58330;51.888;11.052;2023-04-24T04:44:28;33.80;32.29;35.39;;
70740;Laerm;58330;51.888;11.052;2023-04-24T04:46:55;33.41;31.81;36.42;;
70740;Laerm;58330;51.888;11.052;2023-04-24T04:49:23;33.30;31.87;34.66;;
70740;Laerm;58330;51.888;11.052;2023-04-24T04:51:50;33.54;32.12;35.38;;
70740;Laerm;58330;51.888;11.052;2023-04-24T04:54:17;33.52;32.10;34.83;;
70740;Laerm;58330;51.888;11.052;2023-04-24T04:56:43;33.33;31.99;35.14;;
70740;Laerm;58330;51.888;11.052;2023-04-24T04:59:09;33.78;32.18;36.59;;
70740;Laerm;58330;51.888;11.052;2023-04-24T05:01:36;33.21;31.78;34.74;;
70740;Laerm;58330;51.888;11.052;2023-04-24T05:04:02;33.12;31.43;34.33;;
70740;Laerm;58330;51.888;11.052;2023-04-24T05:06:30;33.26;31.77;41.46;;
70740;Laerm;58330;51.888;11.052;2023-04-24T05:08:56;33.40;31.75;35.10;;
70740;Laerm;58330;51.888;11.052;2023-04-24T05:11:22;33.40;32.11;34.89;;
70740;Laerm;58330;51.888;11.052;2023-04-24T05:13:49;33.37;31.97;34.66;;
70740;Laerm;58330;51.888;11.052;2023-04-24T05:16:15;33.40;31.96;34.56;;
70740;Laerm;58330;51.888;11.052;2023-04-24T05:18:42;33.42;32.04;34.87;;
70740;Laerm;58330;51.888;11.052;2023-04-24T05:21:08;33.58;32.10;35.12;;
70740;Laerm;58330;51.888;11.052;2023-04-24T05:23:36;33.63;32.19;35.37;;
70740;Laerm;58330;51.888;11.052;2023-04-24T05:26:02;33.80;32.41;35.39;;
70740;Laerm;58330;51.888;11.052;2023-04-24T05:28:29;33.83;32.28;35.24;;
70740;Laerm;58330;51.888;11.052;2023-04-24T05:30:56;33.60;32.13;35.28;;
70740;Laerm;58330;51.888;11.052;2023-04-24T05:33:24;33.69;32.18;35.58;;
70740;Laerm;58330;51.888;11.052;2023-04-24T05:35:56;33.99;32.44;39.99;;
70740;Laerm;58330;51.888;11.052;2023-04-24T05:38:23;33.92;32.50;35.39;;
70740;Laerm;58330;51.888;11.052;2023-04-24T05:40:51;33.61;32.30;35.07;;
70740;Laerm;58330;51.888;11.052;2023-04-24T05:43:17;33.50;31.81;34.65;;
70740;Laerm;58330;51.888;11.052;2023-04-24T05:45:45;33.44;31.94;34.83;;
70740;Laerm;58330;51.888;11.052;2023-04-24T05:48:11;33.49;32.05;35.01;;
70740;Laerm;58330;51.888;11.052;2023-04-24T05:50:38;33.37;32.11;34.95;;
70740;Laerm;58330;51.888;11.052;2023-04-24T05:53:05;33.34;32.07;34.61;;
70740;Laerm;58330;51.888;11.052;2023-04-24T05:55:32;33.31;32.00;34.66;;
70740;Laerm;58330;51.888;11.052;2023-04-24T05:58:00;33.35;32.14;34.89;;
70740;Laerm;58330;51.888;11.052;2023-04-24T06:00:26;33.35;32.05;34.74;;
70740;Laerm;58330;51.888;11.052;2023-04-24T06:02:53;33.39;31.58;34.65;;
70740;Laerm;58330;51.888;11.052;2023-04-24T06:05:20;33.28;31.75;34.49;;
70740;Laerm;58330;51.888;11.052;2023-04-24T06:07:47;33.26;31.90;34.45;;
70740;Laerm;58330;51.888;11.052;2023-04-24T06:10:16;33.16;31.73;34.81;;
70740;Laerm;58330;51.888;11.052;2023-04-24T06:12:42;33.28;31.79;36.37;;
70740;Laerm;58330;51.888;11.052;2023-04-24T06:15:10;33.72;32.05;37.41;;
70740;Laerm;58330;51.888;11.052;2023-04-24T06:17:36;33.50;32.12;35.51;;
70740;Laerm;58330;51.888;11.052;2023-04-24T06:20:03;33.51;32.16;35.07;;
70740;Laerm;58330;51.888;11.052;2023-04-24T06:22:31;33.51;32.16;34.89;;
70740;Laerm;58330;51.888;11.052;2023-04-24T06:24:57;33.49;32.13;34.62;;
70740;Laerm;58330;51.888;11.052;2023-04-24T06:27:24;33.48;32.08;37.89;;
70740;Laerm;58330;51.888;11.052;2023-04-24T06:29:50;33.47;32.04;34.84;;
70740;Laerm;58330;51.888;11.052;2023-04-24T06:32:21;33.46;32.03;35.04;;
70740;Laerm;58330;51.888;11.052;2023-04-24T06:34:47;33.47;32.30;34.81;;
70740;Laerm;58330;51.888;11.052;2023-04-24T06:37:14;33.46;32.18;34.76;;
70740;Laerm;58330;51.888;11.052;2023-04-24T06:39:41;33.41;32.01;34.57;;
70740;Laerm;58330;51.888;11.052;2023-04-24T06:42:07;33.37;32.01;35.18;;
70740;Laerm;58330;51.888;11.052;2023-04-24T06:44:34;34.16;31.89;45.14;;
70740;Laerm;58330;51.888;11.052;2023-04-24T06:47:05;33.64;31.78;38.42;;
70740;Laerm;58330;51.888;11.052;2023-04-24T06:49:33;33.21;31.92;37.67;;
70740;Laerm;58330;51.888;11.052;2023-04-24T06:52:01;33.15;31.75;36.32;;
70740;Laerm;58330;51.888;11.052;2023-04-24T06:54:28;33.19;31.79;36.20;;
70740;Laerm;58330;51.888;11.052;2023-04-24T06:56:54;33.17;31.64;36.15;;
70740;Laerm;58330;51.888;11.052;2023-04-24T06:59:22;33.32;31.91;36.66;;
70740;Laerm;58330;51.888;11.052;2023-04-24T07:01:48;34.17;31.97;41.89;;
70740;Laerm;58330;51.888;11.052;2023-04-24T07:04:16;38.88;32.04;45.80;;
70740;Laerm;58330;51.888;11.052;2023-04-24T07:06:44;41.13;32.02;45.64;;
70740;Laerm;58330;51.888;11.052;2023-04-24T07:09:20;36.31;31.83;45.52;;
70740;Laerm;58330;51.888;11.052;2023-04-24T07:11:47;33.60;31.96;41.59;;
70740;Laerm;58330;51.888;11.052;2023-04-24T07:14:13;33.48;31.72;42.09;;
70740;Laerm;58330;51.888;11.052;2023-04-24T07:16:40;33.46;31.80;38.61;;
70740;Laerm;58330;51.888;11.052;2023-04-24T07:19:06;33.48;32.02;38.60;;
70740;Laerm;58330;51.888;11.052;2023-04-24T07:21:36;33.59;32.01;34.85;;
70740;Laerm;58330;51.888;11.052;2023-04-24T07:24:05;33.61;31.95;37.43;;
70740;Laerm;58330;51.888;11.052;2023-04-24T07:26:34;33.45;31.88;39.73;;
70740;Laerm;58330;51.888;11.052;2023-04-24T07:29:02;35.01;31.94;47.23;;
70740;Laerm;58330;51.888;11.052;2023-04-24T07:31:29;34.49;31.68;46.80;;
70740;Laerm;58330;51.888;11.052;2023-04-24T07:33:55;34.93;31.82;46.22;;
70740;Laerm;58330;51.888;11.052;2023-04-24T07:36:23;33.01;31.65;34.36;;
70740;Laerm;58330;51.888;11.052;2023-04-24T07:38:51;33.06;31.67;34.25;;
70740;Laerm;58330;51.888;11.052;2023-04-24T07:41:18;33.00;31.66;34.22;;
70740;Laerm;58330;51.888;11.052;2023-04-24T07:43:45;32.94;31.39;34.23;;
70740;Laerm;58330;51.888;11.052;2023-04-24T07:46:12;32.93;31.52;34.26;;
70740;Laerm;58330;51.888;11.052;2023-04-24T07:48:38;32.84;31.58;34.07;;
70740;Laerm;58330;51.888;11.052;2023-04-24T07:51:04;32.80;31.24;34.33;;
70740;Laerm;58330;51.888;11.052;2023-04-24T07:53:31;32.71;31.31;33.84;;
70740;Laerm;58330;51.888;11.052;2023-04-24T07:55:57;32.59;30.89;33.78;;
70740;Laerm;58330;51.888;11.052;2023-04-24T07:58:25;32.58;31.19;34.04;;
70740;Laerm;58330;51.888;11.052;2023-04-24T08:00:51;32.86;31.41;34.70;;
70740;Laerm;58330;51.888;11.052;2023-04-24T08:03:17;32.76;31.44;34.08;;
70740;Laerm;58330;51.888;11.052;2023-04-24T08:05:44;32.53;31.06;33.82;;
70740;Laerm;58330;51.888;11.052;2023-04-24T08:08:11;32.37;31.13;33.58;;
70740;Laerm;58330;51.888;11.052;2023-04-24T08:10:37;32.74;31.17;38.33;;
70740;Laerm;58330;51.888;11.052;2023-04-24T08:13:04;32.58;31.20;34.36;;
70740;Laerm;58330;51.888;11.052;2023-04-24T08:15:33;32.32;30.80;33.47;;
70740;Laerm;58330;51.888;11.052;2023-04-24T08:17:59;32.17;30.84;33.63;;
70740;Laerm;58330;51.888;11.052;2023-04-24T08:20:25;32.18;30.96;33.55;;
70740;Laerm;58330;51.888;11.052;2023-04-24T08:22:52;32.12;30.83;33.53;;
70740;Laerm;58330;51.888;11.052;2023-04-24T08:25:19;32.06;30.81;33.45;;
70740;Laerm;58330;51.888;11.052;2023-04-24T08:27:51;32.08;30.65;33.27;;
70740;Laerm;58330;51.888;11.052;2023-04-24T08:30:20;32.11;30.84;33.36;;
70740;Laerm;58330;51.888;11.052;2023-04-24T08:32:48;32.16;30.73;33.54;;
70740;Laerm;58330;51.888;11.052;2023-04-24T08:35:15;32.27;30.91;33.94;;
70740;Laerm;58330;51.888;11.052;2023-04-24T08:37:41;32.35;30.73;33.92;;
70740;Laerm;58330;51.888;11.052;2023-04-24T08:40:11;32.07;30.70;33.39;;
70740;Laerm;58330;51.888;11.052;2023-04-24T08:42:39;31.80;30.45;33.30;;
70740;Laerm;58330;51.888;11.052;2023-04-24T08:45:06;32.94;30.09;38.19;;
70740;Laerm;58330;51.888;11.052;2023-04-24T08:47:32;32.13;29.86;37.85;;
70740;Laerm;58330;51.888;11.052;2023-04-24T08:50:01;30.90;29.41;32.23;;
70740;Laerm;58330;51.888;11.052;2023-04-24T08:52:28;30.73;29.40;31.92;;
70740;Laerm;58330;51.888;11.052;2023-04-24T08:54:55;31.22;29.34;37.47;;
70740;Laerm;58330;51.888;11.052;2023-04-24T08:57:22;30.97;29.46;33.44;;
70740;Laerm;58330;51.888;11.052;2023-04-24T08:59:48;31.02;29.38;32.63;;
70740;Laerm;58330;51.888;11.052;2023-04-24T09:02:17;31.28;29.69;33.24;;
70740;Laerm;58330;51.888;11.052;2023-04-24T09:04:44;31.17;29.59;33.58;;
70740;Laerm;58330;51.888;11.052;2023-04-24T09:07:16;31.00;29.34;33.02;;
70740;Laerm;58330;51.888;11.052;2023-04-24T09:09:44;30.71;29.09;32.21;;
70740;Laerm;58330;51.888;11.052;2023-04-24T09:12:11;30.67;29.16;32.82;;
70740;Laerm;58330;51.888;11.052;2023-04-24T09:14:37;30.56;29.24;31.96;;
70740;Laerm;58330;51.888;11.052;2023-04-24T09:17:10;30.64;29.16;32.86;;
70740;Laerm;58330;51.888;11.052;2023-04-24T09:19:40;30.97;29.44;38.35;;
70740;Laerm;58330;51.888;11.052;2023-04-24T09:22:06;30.48;28.97;31.90;;
70740;Laerm;58330;51.888;11.052;2023-04-24T09:24:44;30.47;28.86;32.03;;
70740;Laerm;58330;51.888;11.052;2023-04-24T09:27:17;30.36;28.63;33.25;;
70740;Laerm;58330;51.888;11.052;2023-04-24T09:29:53;30.25;28.86;32.40;;
70740;Laerm;58330;51.888;11.052;2023-04-24T09:32:24;30.19;28.81;32.09;;
70740;Laerm;58330;51.888;11.052;2023-04-24T09:35:04;30.24;28.85;33.23;;
70740;Laerm;58330;51.888;11.052;2023-04-24T09:37:34;30.41;28.89;35.48;;
70740;Laerm;58330;51.888;11.052;2023-04-24T09:40:09;30.38;28.90;37.54;;
70740;Laerm;58330;51.888;11.052;2023-04-24T09:42:36;30.38;29.05;34.37;;
70740;Laerm;58330;51.888;11.052;2023-04-24T09:45:04;30.33;28.95;33.47;;
70740;Laerm;58330;51.888;11.052;2023-04-24T09:47:35;30.19;28.60;33.01;;
70740;Laerm;58330;51.888;11.052;2023-04-24T09:50:08;30.08;28.89;33.26;;
70740;Laerm;58330;51.888;11.052;2023-04-24T09:52:35;30.01;28.07;34.95;;
70740;Laerm;58330;51.888;11.052;2023-04-24T09:55:01;29.88;28.26;32.15;;
70740;Laerm;58330;51.888;11.052;2023-04-24T09:57:29;29.82;28.30;37.60;;
70740;Laerm;58330;51.888;11.052;2023-04-24T09:59:56;30.06;28.45;32.72;;
70740;Laerm;58330;51.888;11.052;2023-04-24T10:02:23;30.19;28.82;33.04;;
70740;Laerm;58330;51.888;11.052;2023-04-24T10:04:53;30.06;28.66;32.21;;
70740;Laerm;58330;51.888;11.052;2023-04-24T10:07:20;30.07;28.59;34.52;;
70740;Laerm;58330;51.888;11.052;2023-04-24T10:09:47;30.36;28.94;32.12;;
70740;Laerm;58330;51.888;11.052;2023-04-24T10:12:16;30.49;28.81;36.06;;
70740;Laerm;58330;51.888;11.052;2023-04-24T10:17:34;30.00;28.37;31.76;;
70740;Laerm;58330;51.888;11.052;2023-04-24T10:20:02;29.80;28.44;31.09;;
70740;Laerm;58330;51.888;11.052;2023-04-24T10:22:28;29.94;28.40;32.47;;
70740;Laerm;58330;51.888;11.052;2023-04-24T10:24:58;29.92;28.39;31.59;;
70740;Laerm;58330;51.888;11.052;2023-04-24T10:27:26;29.80;28.29;33.76;;
70740;Laerm;58330;51.888;11.052;2023-04-24T10:29:52;29.60;28.21;32.23;;
70740;Laerm;58330;51.888;11.052;2023-04-24T10:32:19;29.56;28.15;33.53;;
70740;Laerm;58330;51.888;11.052;2023-04-24T10:34:47;29.60;28.05;31.12;;
70740;Laerm;58330;51.888;11.052;2023-04-24T10:37:14;29.60;28.13;31.02;;
70740;Laerm;58330;51.888;11.052;2023-04-24T10:39:41;29.99;28.09;32.97;;
70740;Laerm;58330;51.888;11.052;2023-04-24T10:42:13;29.66;28.02;33.52;;
70740;Laerm;58330;51.888;11.052;2023-04-24T10:44:40;29.71;28.03;31.36;;
70740;Laerm;58330;51.888;11.052;2023-04-24T10:47:12;30.00;28.42;33.48;;
70740;Laerm;58330;51.888;11.052;2023-04-24T10:49:39;29.84;28.15;31.40;;
70740;Laerm;58330;51.888;11.052;2023-04-24T10:52:12;30.03;28.67;32.09;;
70740;Laerm;58330;51.888;11.052;2023-04-24T10:54:42;30.04;28.13;31.40;;
70740;Laerm;58330;51.888;11.052;2023-04-24T10:57:25;29.97;28.67;31.66;;
70740;Laerm;58330;51.888;11.052;2023-04-24T11:00:09;30.12;28.54;33.41;;
70740;Laerm;58330;51.888;11.052;2023-04-24T11:02:37;30.19;28.84;31.99;;
70740;Laerm;58330;51.888;11.052;2023-04-24T11:05:03;30.35;28.66;42.90;;
70740;Laerm;58330;51.888;11.052;2023-04-24T11:07:35;30.36;28.98;33.77;;
70740;Laerm;58330;51.888;11.052;2023-04-24T11:10:25;30.14;28.62;34.35;;
70740;Laerm;58330;51.888;11.052;2023-04-24T11:12:51;30.14;28.83;32.85;;
70740;Laerm;58330;51.888;11.052;2023-04-24T11:15:18;30.27;28.87;32.42;;
70740;Laerm;58330;51.888;11.052;2023-04-24T11:17:45;30.45;28.94;38.64;;
70740;Laerm;58330;51.888;11.052;2023-04-24T11:23:24;30.32;28.97;33.47;;
70740;Laerm;58330;51.888;11.052;2023-04-24T11:28:32;30.27;28.69;32.02;;
70740;Laerm;58330;51.888;11.052;2023-04-24T11:30:59;30.18;28.74;32.92;;
70740;Laerm;58330;51.888;11.052;2023-04-24T11:33:46;30.16;28.65;32.77;;
70740;Laerm;58330;51.888;11.052;2023-04-24T11:36:12;30.53;28.84;36.96;;
70740;Laerm;58330;51.888;11.052;2023-04-24T11:38:40;30.26;28.72;32.37;;
70740;Laerm;58330;51.888;11.052;2023-04-24T11:41:07;30.26;28.78;32.84;;
70740;Laerm;58330;51.888;11.052;2023-04-24T11:43:34;30.20;28.78;34.11;;
70740;Laerm;58330;51.888;11.052;2023-04-24T11:46:01;30.16;28.69;32.81;;
70740;Laerm;58330;51.888;11.052;2023-04-24T11:48:27;30.28;28.79;32.63;;
70740;Laerm;58330;51.888;11.052;2023-04-24T11:50:54;30.35;28.82;36.35;;
70740;Laerm;58330;51.888;11.052;2023-04-24T11:53:20;30.75;28.89;37.73;;
70740;Laerm;58330;51.888;11.052;2023-04-24T11:55:49;30.42;28.92;32.76;;
70740;Laerm;58330;51.888;11.052;2023-04-24T11:58:15;30.28;28.84;31.80;;
70740;Laerm;58330;51.888;11.052;2023-04-24T12:00:54;30.36;28.71;32.88;;
70740;Laerm;58330;51.888;11.052;2023-04-24T12:03:21;30.38;29.02;32.24;;
70740;Laerm;58330;51.888;11.052;2023-04-24T12:05:51;30.46;29.09;32.65;;
70740;Laerm;58330;51.888;11.052;2023-04-24T12:08:26;30.41;29.08;32.31;;
70740;Laerm;58330;51.888;11.052;2023-04-24T12:10:54;30.48;29.09;32.98;;
70740;Laerm;58330;51.888;11.052;2023-04-24T12:13:21;30.51;29.15;32.06;;
70740;Laerm;58330;51.888;11.052;2023-04-24T12:15:51;30.56;28.94;32.48;;
70740;Laerm;58330;51.888;11.052;2023-04-24T12:18:22;30.57;29.24;33.37;;
70740;Laerm;58330;51.888;11.052;2023-04-24T12:20:48;30.61;29.14;32.67;;
70740;Laerm;58330;51.888;11.052;2023-04-24T12:23:15;30.71;29.29;34.76;;
70740;Laerm;58330;51.888;11.052;2023-04-24T12:25:42;30.65;29.06;33.45;;
70740;Laerm;58330;51.888;11.052;2023-04-24T12:28:11;30.64;29.29;33.46;;
70740;Laerm;58330;51.888;11.052;2023-04-24T12:30:56;30.58;29.13;32.62;;
70740;Laerm;58330;51.888;11.052;2023-04-24T12:33:23;30.67;29.04;34.91;;
70740;Laerm;58330;51.888;11.052;2023-04-24T12:35:51;30.74;29.26;33.65;;
70740;Laerm;58330;51.888;11.052;2023-04-24T12:38:25;30.86;29.06;33.64;;
70740;Laerm;58330;51.888;11.052;2023-04-24T12:41:06;30.75;29.25;33.56;;
70740;Laerm;58330;51.888;11.052;2023-04-24T12:43:37;30.63;28.99;33.74;;
70740;Laerm;58330;51.888;11.052;2023-04-24T12:46:03;30.70;29.07;33.61;;
70740;Laerm;58330;51.888;11.052;2023-04-24T12:48:30;30.59;29.09;32.67;;
70740;Laerm;58330;51.888;11.052;2023-04-24T12:50:57;30.50;29.08;32.99;;
70740;Laerm;58330;51.888;11.052;2023-04-24T12:53:29;30.59;29.17;33.83;;
70740;Laerm;58330;51.888;11.052;2023-04-24T12:55:56;30.49;29.11;32.66;;
70740;Laerm;58330;51.888;11.052;2023-04-24T12:58:22;30.59;29.34;34.21;;
70740;Laerm;58330;51.888;11.052;2023-04-24T13:00:50;30.63;29.19;32.47;;
70740;Laerm;58330;51.888;11.052;2023-04-24T13:03:17;30.86;29.11;33.06;;
70740;Laerm;58330;51.888;11.052;2023-04-24T13:05:44;30.88;29.57;32.14;;
70740;Laerm;58330;51.888;11.052;2023-04-24T13:08:10;31.08;29.80;34.52;;
70740;Laerm;58330;51.888;11.052;2023-04-24T13:10:37;31.25;29.87;33.19;;
70740;Laerm;58330;51.888;11.052;2023-04-24T13:13:04;31.35;30.00;33.91;;
70740;Laerm;58330;51.888;11.052;2023-04-24T13:15:31;31.45;29.85;33.21;;
70740;Laerm;58330;51.888;11.052;2023-04-24T13:18:01;31.41;30.09;32.97;;
70740;Laerm;58330;51.888;11.052;2023-04-24T13:20:28;31.54;29.90;33.54;;
70740;Laerm;58330;51.888;11.052;2023-04-24T13:22:54;31.71;30.21;33.19;;
70740;Laerm;58330;51.888;11.052;2023-04-24T13:25:21;31.76;30.38;33.02;;
70740;Laerm;58330;51.888;11.052;2023-04-24T13:27:48;31.72;30.15;33.54;;
70740;Laerm;58330;51.888;11.052;2023-04-24T13:30:14;31.68;29.99;33.29;;
70740;Laerm;58330;51.888;11.052;2023-04-24T13:32:41;31.67;30.09;33.39;;
70740;Laerm;58330;51.888;11.052;2023-04-24T13:35:09;31.79;30.44;33.98;;
70740;Laerm;58330;51.888;11.052;2023-04-24T13:37:35;31.94;30.42;33.32;;
70740;Laerm;58330;51.888;11.052;2023-04-24T13:40:02;31.96;30.62;34.55;;
70740;Laerm;58330;51.888;11.052;2023-04-24T13:42:31;32.01;30.49;33.82;;